sensor_id;sensor_type;location;lat;lon;timestamp;P1;durP1;ratioP1;P2;durP2;ratioP2
9330;SDS011;4704;50.470;12.072;2023-03-23T00:02:22;28.13;;;16.27;;
9330;SDS011;4704;50.470;12.072;2023-03-23T00:04:50;27.13;;;16.65;;
9330;SDS011;4704;50.470;12.072;2023-03-23T00:07:19;24.90;;;15.32;;
9330;SDS011;4704;50.470;12.072;2023-03-23T00:09:47;24.60;;;15.55;;
9330;SDS011;4704;50.470;12.072;2023-03-23T00:12:18;23.88;;;14.98;;
9330;SDS011;4704;50.470;12.072;2023-03-23T00:14:46;21.35;;;14.55;;
9330;SDS011;4704;50.470;12.072;2023-03-23T00:17:13;21.08;;;14.07;;
9330;SDS011;4704;50.470;12.072;2023-03-23T00:19:41;21.58;;;13.68;;
9330;SDS011;4704;50.470;12.072;2023-03-23T00:22:12;21.92;;;13.75;;
9330;SDS011;4704;50.470;12.072;2023-03-23T00:24:42;19.40;;;13.73;;
9330;SDS011;4704;50.470;12.072;2023-03-23T00:27:09;18.88;;;12.00;;
9330;SDS011;4704;50.470;12.072;2023-03-23T00:29:39;18.88;;;12.50;;
9330;SDS011;4704;50.470;12.072;2023-03-23T00:32:07;17.55;;;12.10;;
9330;SDS011;4704;50.470;12.072;2023-03-23T00:34:38;18.45;;;11.43;;
9330;SDS011;4704;50.470;12.072;2023-03-23T00:37:06;17.02;;;11.45;;
9330;SDS011;4704;50.470;12.072;2023-03-23T00:39:35;18.35;;;11.70;;
9330;SDS011;4704;50.470;12.072;2023-03-23T00:42:04;15.85;;;10.50;;
9330;SDS011;4704;50.470;12.072;2023-03-23T00:44:33;15.38;;;10.98;;
9330;SDS011;4704;50.470;12.072;2023-03-23T00:47:01;16.17;;;10.95;;
9330;SDS011;4704;50.470;12.072;2023-03-23T00:49:28;15.25;;;9.98;;
9330;SDS011;4704;50.470;12.072;2023-03-23T00:52:00;13.45;;;9.48;;
9330;SDS011;4704;50.470;12.072;2023-03-23T00:54:28;14.38;;;9.68;;
9330;SDS011;4704;50.470;12.072;2023-03-23T00:56:55;14.60;;;9.35;;
9330;SDS011;4704;50.470;12.072;2023-03-23T00:59:24;13.10;;;9.32;;
9330;SDS011;4704;50.470;12.072;2023-03-23T01:01:51;12.43;;;8.15;;
9330;SDS011;4704;50.470;12.072;2023-03-23T01:04:18;11.63;;;8.50;;
9330;SDS011;4704;50.470;12.072;2023-03-23T01:06:48;14.32;;;8.98;;
9330;SDS011;4704;50.470;12.072;2023-03-23T01:09:16;12.80;;;8.57;;
9330;SDS011;4704;50.470;12.072;2023-03-23T01:11:44;13.75;;;8.68;;
9330;SDS011;4704;50.470;12.072;2023-03-23T01:14:13;10.45;;;7.80;;
9330;SDS011;4704;50.470;12.072;2023-03-23T01:16:42;12.10;;;7.70;;
9330;SDS011;4704;50.470;12.072;2023-03-23T01:19:09;9.82;;;7.25;;
9330;SDS011;4704;50.470;12.072;2023-03-23T01:21:37;11.07;;;7.47;;
9330;SDS011;4704;50.470;12.072;2023-03-23T01:24:05;9.65;;;6.60;;
9330;SDS011;4704;50.470;12.072;2023-03-23T01:26:32;10.80;;;7.18;;
9330;SDS011;4704;50.470;12.072;2023-03-23T01:28:59;9.25;;;6.63;;
9330;SDS011;4704;50.470;12.072;2023-03-23T01:31:27;10.18;;;6.97;;
9330;SDS011;4704;50.470;12.072;2023-03-23T01:33:56;10.60;;;6.82;;
9330;SDS011;4704;50.470;12.072;2023-03-23T01:36:24;9.07;;;6.43;;
9330;SDS011;4704;50.470;12.072;2023-03-23T01:38:51;9.38;;;6.38;;
9330;SDS011;4704;50.470;12.072;2023-03-23T01:41:20;9.65;;;6.60;;
9330;SDS011;4704;50.470;12.072;2023-03-23T01:43:54;9.13;;;6.40;;
9330;SDS011;4704;50.470;12.072;2023-03-23T01:46:22;8.73;;;6.10;;
9330;SDS011;4704;50.470;12.072;2023-03-23T01:48:50;8.40;;;5.45;;
9330;SDS011;4704;50.470;12.072;2023-03-23T01:51:19;8.27;;;5.90;;
9330;SDS011;4704;50.470;12.072;2023-03-23T01:53:48;7.22;;;5.25;;
9330;SDS011;4704;50.470;12.072;2023-03-23T01:56:16;7.43;;;5.72;;
9330;SDS011;4704;50.470;12.072;2023-03-23T01:58:45;8.27;;;5.90;;
9330;SDS011;4704;50.470;12.072;2023-03-23T02:01:13;6.85;;;5.28;;
9330;SDS011;4704;50.470;12.072;2023-03-23T02:03:42;8.23;;;5.60;;
9330;SDS011;4704;50.470;12.072;2023-03-23T02:06:10;7.18;;;5.53;;
9330;SDS011;4704;50.470;12.072;2023-03-23T02:08:39;7.30;;;4.80;;
9330;SDS011;4704;50.470;12.072;2023-03-23T02:11:12;6.80;;;4.80;;
9330;SDS011;4704;50.470;12.072;2023-03-23T02:13:40;7.13;;;4.65;;
9330;SDS011;4704;50.470;12.072;2023-03-23T02:16:08;6.45;;;4.68;;
9330;SDS011;4704;50.470;12.072;2023-03-23T02:18:44;7.63;;;5.25;;
9330;SDS011;4704;50.470;12.072;2023-03-23T02:21:20;6.55;;;4.63;;
9330;SDS011;4704;50.470;12.072;2023-03-23T02:26:40;6.13;;;4.30;;
9330;SDS011;4704;50.470;12.072;2023-03-23T02:32:04;5.38;;;4.05;;
9330;SDS011;4704;50.470;12.072;2023-03-23T02:34:36;5.93;;;4.07;;
9330;SDS011;4704;50.470;12.072;2023-03-23T02:37:07;5.80;;;4.18;;
9330;SDS011;4704;50.470;12.072;2023-03-23T02:39:36;5.90;;;3.95;;
9330;SDS011;4704;50.470;12.072;2023-03-23T02:42:05;4.53;;;3.60;;
9330;SDS011;4704;50.470;12.072;2023-03-23T02:44:33;6.57;;;3.83;;
9330;SDS011;4704;50.470;12.072;2023-03-23T02:47:02;4.90;;;3.80;;
9330;SDS011;4704;50.470;12.072;2023-03-23T02:49:31;4.88;;;3.85;;
9330;SDS011;4704;50.470;12.072;2023-03-23T02:52:02;5.63;;;3.67;;
9330;SDS011;4704;50.470;12.072;2023-03-23T02:54:30;4.15;;;3.10;;
9330;SDS011;4704;50.470;12.072;2023-03-23T02:56:57;5.05;;;3.88;;
9330;SDS011;4704;50.470;12.072;2023-03-23T02:59:26;5.20;;;3.83;;
9330;SDS011;4704;50.470;12.072;2023-03-23T03:02:06;4.15;;;3.35;;
9330;SDS011;4704;50.470;12.072;2023-03-23T03:04:34;4.82;;;3.17;;
9330;SDS011;4704;50.470;12.072;2023-03-23T03:07:09;4.10;;;3.22;;
9330;SDS011;4704;50.470;12.072;2023-03-23T03:09:42;4.28;;;3.20;;
9330;SDS011;4704;50.470;12.072;2023-03-23T03:12:12;4.05;;;2.97;;
9330;SDS011;4704;50.470;12.072;2023-03-23T03:14:44;4.85;;;3.47;;
9330;SDS011;4704;50.470;12.072;2023-03-23T03:17:16;4.90;;;3.10;;
9330;SDS011;4704;50.470;12.072;2023-03-23T03:19:45;4.88;;;3.03;;
9330;SDS011;4704;50.470;12.072;2023-03-23T03:22:15;4.20;;;2.90;;
9330;SDS011;4704;50.470;12.072;2023-03-23T03:24:44;4.28;;;2.75;;
9330;SDS011;4704;50.470;12.072;2023-03-23T03:27:12;3.30;;;2.70;;
9330;SDS011;4704;50.470;12.072;2023-03-23T03:29:41;3.28;;;2.58;;
9330;SDS011;4704;50.470;12.072;2023-03-23T03:32:14;3.22;;;2.72;;
9330;SDS011;4704;50.470;12.072;2023-03-23T03:34:42;3.13;;;2.45;;
9330;SDS011;4704;50.470;12.072;2023-03-23T03:37:09;3.40;;;2.58;;
9330;SDS011;4704;50.470;12.072;2023-03-23T03:39:39;3.15;;;2.50;;
9330;SDS011;4704;50.470;12.072;2023-03-23T03:42:06;2.85;;;2.60;;
9330;SDS011;4704;50.470;12.072;2023-03-23T03:44:34;3.10;;;2.30;;
9330;SDS011;4704;50.470;12.072;2023-03-23T03:47:01;3.67;;;2.60;;
9330;SDS011;4704;50.470;12.072;2023-03-23T03:49:28;2.88;;;2.40;;
9330;SDS011;4704;50.470;12.072;2023-03-23T03:51:56;2.70;;;2.13;;
9330;SDS011;4704;50.470;12.072;2023-03-23T03:54:23;3.63;;;2.20;;
9330;SDS011;4704;50.470;12.072;2023-03-23T03:56:52;3.15;;;2.40;;
9330;SDS011;4704;50.470;12.072;2023-03-23T03:59:22;2.40;;;2.05;;
9330;SDS011;4704;50.470;12.072;2023-03-23T04:01:51;2.60;;;2.05;;
9330;SDS011;4704;50.470;12.072;2023-03-23T04:04:19;2.10;;;1.73;;
9330;SDS011;4704;50.470;12.072;2023-03-23T04:06:48;2.45;;;2.05;;
9330;SDS011;4704;50.470;12.072;2023-03-23T04:09:15;2.70;;;2.22;;
9330;SDS011;4704;50.470;12.072;2023-03-23T04:11:44;2.42;;;2.10;;
9330;SDS011;4704;50.470;12.072;2023-03-23T04:14:13;2.90;;;2.10;;
9330;SDS011;4704;50.470;12.072;2023-03-23T04:16:40;2.80;;;2.20;;
9330;SDS011;4704;50.470;12.072;2023-03-23T04:19:08;2.00;;;1.80;;
9330;SDS011;4704;50.470;12.072;2023-03-23T04:21:37;2.45;;;1.80;;
9330;SDS011;4704;50.470;12.072;2023-03-23T04:24:05;2.05;;;1.70;;
9330;SDS011;4704;50.470;12.072;2023-03-23T04:26:33;2.85;;;2.05;;
9330;SDS011;4704;50.470;12.072;2023-03-23T04:29:00;2.05;;;1.80;;
9330;SDS011;4704;50.470;12.072;2023-03-23T04:31:29;2.42;;;1.80;;
9330;SDS011;4704;50.470;12.072;2023-03-23T04:33:57;2.30;;;1.88;;
9330;SDS011;4704;50.470;12.072;2023-03-23T04:36:26;2.22;;;1.80;;
9330;SDS011;4704;50.470;12.072;2023-03-23T04:38:54;2.85;;;1.90;;
9330;SDS011;4704;50.470;12.072;2023-03-23T04:41:22;2.03;;;1.83;;
9330;SDS011;4704;50.470;12.072;2023-03-23T04:43:50;1.90;;;1.70;;
9330;SDS011;4704;50.470;12.072;2023-03-23T04:46:18;1.67;;;1.50;;
9330;SDS011;4704;50.470;12.072;2023-03-23T04:48:47;1.60;;;1.45;;
9330;SDS011;4704;50.470;12.072;2023-03-23T04:51:15;2.13;;;1.75;;
9330;SDS011;4704;50.470;12.072;2023-03-23T04:53:42;2.13;;;1.88;;
9330;SDS011;4704;50.470;12.072;2023-03-23T04:56:09;2.00;;;1.77;;
9330;SDS011;4704;50.470;12.072;2023-03-23T04:58:38;2.00;;;1.48;;
9330;SDS011;4704;50.470;12.072;2023-03-23T05:01:06;2.05;;;1.70;;
9330;SDS011;4704;50.470;12.072;2023-03-23T05:03:33;1.70;;;1.38;;
9330;SDS011;4704;50.470;12.072;2023-03-23T05:06:02;2.20;;;1.77;;
9330;SDS011;4704;50.470;12.072;2023-03-23T05:08:30;2.20;;;1.60;;
9330;SDS011;4704;50.470;12.072;2023-03-23T05:10:58;1.80;;;1.40;;
9330;SDS011;4704;50.470;12.072;2023-03-23T05:13:26;1.70;;;1.33;;
9330;SDS011;4704;50.470;12.072;2023-03-23T05:15:54;1.40;;;1.30;;
9330;SDS011;4704;50.470;12.072;2023-03-23T05:18:21;1.80;;;1.50;;
9330;SDS011;4704;50.470;12.072;2023-03-23T05:20:48;2.03;;;1.50;;
9330;SDS011;4704;50.470;12.072;2023-03-23T05:23:19;2.08;;;1.48;;
9330;SDS011;4704;50.470;12.072;2023-03-23T05:25:52;1.80;;;1.50;;
9330;SDS011;4704;50.470;12.072;2023-03-23T05:28:19;1.60;;;1.50;;
9330;SDS011;4704;50.470;12.072;2023-03-23T05:30:48;1.30;;;1.20;;
9330;SDS011;4704;50.470;12.072;2023-03-23T05:33:15;1.77;;;1.33;;
9330;SDS011;4704;50.470;12.072;2023-03-23T05:35:42;1.52;;;1.40;;
9330;SDS011;4704;50.470;12.072;2023-03-23T05:38:10;1.50;;;1.40;;
9330;SDS011;4704;50.470;12.072;2023-03-23T05:40:39;2.17;;;1.48;;
9330;SDS011;4704;50.470;12.072;2023-03-23T05:43:06;1.60;;;1.40;;
9330;SDS011;4704;50.470;12.072;2023-03-23T05:45:33;1.48;;;1.20;;
9330;SDS011;4704;50.470;12.072;2023-03-23T05:48:01;1.80;;;1.30;;
9330;SDS011;4704;50.470;12.072;2023-03-23T05:50:28;1.48;;;1.38;;
9330;SDS011;4704;50.470;12.072;2023-03-23T05:52:55;1.42;;;1.30;;
9330;SDS011;4704;50.470;12.072;2023-03-23T05:55:24;1.40;;;1.30;;
9330;SDS011;4704;50.470;12.072;2023-03-23T05:57:52;1.80;;;1.10;;
9330;SDS011;4704;50.470;12.072;2023-03-23T06:00:20;1.23;;;1.13;;
9330;SDS011;4704;50.470;12.072;2023-03-23T06:02:48;1.80;;;1.30;;
9330;SDS011;4704;50.470;12.072;2023-03-23T06:05:17;1.70;;;1.35;;
9330;SDS011;4704;50.470;12.072;2023-03-23T06:07:44;1.40;;;1.30;;
9330;SDS011;4704;50.470;12.072;2023-03-23T06:10:12;1.30;;;1.20;;
9330;SDS011;4704;50.470;12.072;2023-03-23T06:12:39;1.20;;;1.05;;
9330;SDS011;4704;50.470;12.072;2023-03-23T06:15:09;1.20;;;1.10;;
9330;SDS011;4704;50.470;12.072;2023-03-23T06:17:37;1.58;;;1.33;;
9330;SDS011;4704;50.470;12.072;2023-03-23T06:20:05;3.42;;;2.53;;
9330;SDS011;4704;50.470;12.072;2023-03-23T06:22:36;6.28;;;4.00;;
9330;SDS011;4704;50.470;12.072;2023-03-23T06:25:05;8.73;;;5.97;;
9330;SDS011;4704;50.470;12.072;2023-03-23T06:27:32;10.95;;;7.80;;
9330;SDS011;4704;50.470;12.072;2023-03-23T06:30:00;17.50;;;9.25;;
9330;SDS011;4704;50.470;12.072;2023-03-23T06:32:29;20.40;;;11.00;;
9330;SDS011;4704;50.470;12.072;2023-03-23T06:34:57;22.67;;;12.18;;
9330;SDS011;4704;50.470;12.072;2023-03-23T06:37:24;23.30;;;12.57;;
9330;SDS011;4704;50.470;12.072;2023-03-23T06:39:51;25.65;;;14.32;;
9330;SDS011;4704;50.470;12.072;2023-03-23T06:42:19;26.80;;;15.25;;
9330;SDS011;4704;50.470;12.072;2023-03-23T06:44:46;27.10;;;15.75;;
9330;SDS011;4704;50.470;12.072;2023-03-23T06:47:13;28.38;;;16.95;;
9330;SDS011;4704;50.470;12.072;2023-03-23T06:49:42;32.47;;;17.83;;
9330;SDS011;4704;50.470;12.072;2023-03-23T06:52:10;30.17;;;17.98;;
9330;SDS011;4704;50.470;12.072;2023-03-23T06:54:37;36.03;;;20.27;;
9330;SDS011;4704;50.470;12.072;2023-03-23T06:57:05;35.10;;;20.30;;
9330;SDS011;4704;50.470;12.072;2023-03-23T06:59:32;30.27;;;20.15;;
9330;SDS011;4704;50.470;12.072;2023-03-23T07:01:59;35.15;;;20.65;;
9330;SDS011;4704;50.470;12.072;2023-03-23T07:04:27;37.05;;;21.92;;
9330;SDS011;4704;50.470;12.072;2023-03-23T07:06:57;36.00;;;22.25;;
9330;SDS011;4704;50.470;12.072;2023-03-23T07:09:24;36.15;;;22.83;;
9330;SDS011;4704;50.470;12.072;2023-03-23T07:11:51;36.50;;;23.00;;
9330;SDS011;4704;50.470;12.072;2023-03-23T07:14:19;34.13;;;22.05;;
9330;SDS011;4704;50.470;12.072;2023-03-23T07:16:47;37.53;;;23.48;;
9330;SDS011;4704;50.470;12.072;2023-03-23T07:19:14;37.50;;;23.38;;
9330;SDS011;4704;50.470;12.072;2023-03-23T07:21:41;34.65;;;22.95;;
9330;SDS011;4704;50.470;12.072;2023-03-23T07:24:11;35.70;;;22.52;;
9330;SDS011;4704;50.470;12.072;2023-03-23T07:26:39;38.40;;;22.95;;
9330;SDS011;4704;50.470;12.072;2023-03-23T07:29:07;35.97;;;21.85;;
9330;SDS011;4704;50.470;12.072;2023-03-23T07:31:35;31.77;;;21.17;;
9330;SDS011;4704;50.470;12.072;2023-03-23T07:34:02;36.95;;;22.80;;
9330;SDS011;4704;50.470;12.072;2023-03-23T07:36:30;34.05;;;22.05;;
9330;SDS011;4704;50.470;12.072;2023-03-23T07:39:00;35.00;;;22.95;;
9330;SDS011;4704;50.470;12.072;2023-03-23T07:41:29;31.45;;;22.25;;
9330;SDS011;4704;50.470;12.072;2023-03-23T07:43:56;34.47;;;22.05;;
9330;SDS011;4704;50.470;12.072;2023-03-23T07:46:24;33.92;;;21.70;;
9330;SDS011;4704;50.470;12.072;2023-03-23T07:48:51;33.20;;;21.30;;
9330;SDS011;4704;50.470;12.072;2023-03-23T07:51:18;33.50;;;21.77;;
9330;SDS011;4704;50.470;12.072;2023-03-23T07:53:46;35.65;;;21.75;;
9330;SDS011;4704;50.470;12.072;2023-03-23T07:56:15;29.98;;;21.55;;
9330;SDS011;4704;50.470;12.072;2023-03-23T07:58:45;33.50;;;21.58;;
9330;SDS011;4704;50.470;12.072;2023-03-23T08:01:13;26.98;;;19.48;;
9330;SDS011;4704;50.470;12.072;2023-03-23T08:03:40;29.60;;;19.67;;
9330;SDS011;4704;50.470;12.072;2023-03-23T08:06:08;31.33;;;20.40;;
9330;SDS011;4704;50.470;12.072;2023-03-23T08:08:35;27.73;;;20.02;;
9330;SDS011;4704;50.470;12.072;2023-03-23T08:11:05;29.42;;;19.30;;
9330;SDS011;4704;50.470;12.072;2023-03-23T08:13:32;29.38;;;19.90;;
9330;SDS011;4704;50.470;12.072;2023-03-23T08:16:02;28.77;;;19.42;;
9330;SDS011;4704;50.470;12.072;2023-03-23T08:18:29;28.25;;;19.20;;
9330;SDS011;4704;50.470;12.072;2023-03-23T08:20:57;27.77;;;18.40;;
9330;SDS011;4704;50.470;12.072;2023-03-23T08:23:24;24.95;;;18.02;;
9330;SDS011;4704;50.470;12.072;2023-03-23T08:25:52;27.75;;;19.02;;
9330;SDS011;4704;50.470;12.072;2023-03-23T08:28:19;26.65;;;17.70;;
9330;SDS011;4704;50.470;12.072;2023-03-23T08:30:47;27.33;;;18.52;;
9330;SDS011;4704;50.470;12.072;2023-03-23T08:33:16;26.45;;;18.23;;
9330;SDS011;4704;50.470;12.072;2023-03-23T08:35:44;26.38;;;17.83;;
9330;SDS011;4704;50.470;12.072;2023-03-23T08:38:11;25.23;;;17.38;;
9330;SDS011;4704;50.470;12.072;2023-03-23T08:40:39;26.73;;;17.52;;
9330;SDS011;4704;50.470;12.072;2023-03-23T08:43:08;24.05;;;16.80;;
9330;SDS011;4704;50.470;12.072;2023-03-23T08:45:35;24.83;;;17.08;;
9330;SDS011;4704;50.470;12.072;2023-03-23T08:48:02;22.55;;;16.15;;
9330;SDS011;4704;50.470;12.072;2023-03-23T08:50:31;21.17;;;16.08;;
9330;SDS011;4704;50.470;12.072;2023-03-23T08:52:59;23.13;;;15.82;;
9330;SDS011;4704;50.470;12.072;2023-03-23T08:55:26;23.20;;;15.82;;
9330;SDS011;4704;50.470;12.072;2023-03-23T08:57:53;23.23;;;15.73;;
9330;SDS011;4704;50.470;12.072;2023-03-23T09:00:21;24.48;;;16.58;;
9330;SDS011;4704;50.470;12.072;2023-03-23T09:02:52;19.98;;;14.70;;
9330;SDS011;4704;50.470;12.072;2023-03-23T09:05:20;21.65;;;14.63;;
9330;SDS011;4704;50.470;12.072;2023-03-23T09:07:51;18.40;;;14.10;;
9330;SDS011;4704;50.470;12.072;2023-03-23T09:10:18;18.80;;;14.25;;
9330;SDS011;4704;50.470;12.072;2023-03-23T09:12:46;19.75;;;14.10;;
9330;SDS011;4704;50.470;12.072;2023-03-23T09:15:14;17.88;;;13.07;;
9330;SDS011;4704;50.470;12.072;2023-03-23T09:17:43;18.92;;;12.60;;
9330;SDS011;4704;50.470;12.072;2023-03-23T09:20:12;18.63;;;12.90;;
9330;SDS011;4704;50.470;12.072;2023-03-23T09:22:39;16.25;;;12.35;;
9330;SDS011;4704;50.470;12.072;2023-03-23T09:25:09;16.55;;;12.13;;
9330;SDS011;4704;50.470;12.072;2023-03-23T09:27:37;15.18;;;11.43;;
9330;SDS011;4704;50.470;12.072;2023-03-23T09:30:06;14.30;;;10.98;;
9330;SDS011;4704;50.470;12.072;2023-03-23T09:32:33;15.95;;;10.73;;
9330;SDS011;4704;50.470;12.072;2023-03-23T09:35:01;15.13;;;10.73;;
9330;SDS011;4704;50.470;12.072;2023-03-23T09:37:29;14.57;;;10.93;;
9330;SDS011;4704;50.470;12.072;2023-03-23T09:39:57;14.98;;;10.80;;
9330;SDS011;4704;50.470;12.072;2023-03-23T09:42:33;13.32;;;10.02;;
9330;SDS011;4704;50.470;12.072;2023-03-23T09:45:05;13.63;;;9.98;;
9330;SDS011;4704;50.470;12.072;2023-03-23T09:47:35;14.57;;;10.05;;
9330;SDS011;4704;50.470;12.072;2023-03-23T09:50:08;14.52;;;10.20;;
9330;SDS011;4704;50.470;12.072;2023-03-23T09:52:37;13.70;;;10.18;;
9330;SDS011;4704;50.470;12.072;2023-03-23T09:55:07;13.32;;;9.90;;
9330;SDS011;4704;50.470;12.072;2023-03-23T09:57:38;14.75;;;9.63;;
9330;SDS011;4704;50.470;12.072;2023-03-23T10:00:09;12.70;;;9.73;;
9330;SDS011;4704;50.470;12.072;2023-03-23T10:02:40;11.30;;;8.98;;
9330;SDS011;4704;50.470;12.072;2023-03-23T10:05:23;13.00;;;9.38;;
9330;SDS011;4704;50.470;12.072;2023-03-23T10:07:52;12.95;;;9.90;;
9330;SDS011;4704;50.470;12.072;2023-03-23T10:10:19;10.45;;;8.45;;
9330;SDS011;4704;50.470;12.072;2023-03-23T10:12:54;12.52;;;9.23;;
9330;SDS011;4704;50.470;12.072;2023-03-23T10:15:24;11.32;;;8.57;;
9330;SDS011;4704;50.470;12.072;2023-03-23T10:17:54;11.25;;;8.63;;
9330;SDS011;4704;50.470;12.072;2023-03-23T10:20:29;10.75;;;8.60;;
9330;SDS011;4704;50.470;12.072;2023-03-23T10:23:01;10.52;;;8.05;;
9330;SDS011;4704;50.470;12.072;2023-03-23T10:25:31;9.93;;;7.80;;
9330;SDS011;4704;50.470;12.072;2023-03-23T10:28:01;9.18;;;7.95;;
9330;SDS011;4704;50.470;12.072;2023-03-23T10:30:31;10.18;;;7.85;;
9330;SDS011;4704;50.470;12.072;2023-03-23T10:33:01;9.55;;;7.82;;
9330;SDS011;4704;50.470;12.072;2023-03-23T10:35:33;10.15;;;7.95;;
9330;SDS011;4704;50.470;12.072;2023-03-23T10:38:03;10.80;;;7.90;;
9330;SDS011;4704;50.470;12.072;2023-03-23T10:40:31;10.02;;;8.13;;
9330;SDS011;4704;50.470;12.072;2023-03-23T10:43:01;10.55;;;7.97;;
9330;SDS011;4704;50.470;12.072;2023-03-23T10:45:30;11.18;;;7.63;;
9330;SDS011;4704;50.470;12.072;2023-03-23T10:47:59;10.05;;;8.18;;
9330;SDS011;4704;50.470;12.072;2023-03-23T10:50:30;11.25;;;7.88;;
9330;SDS011;4704;50.470;12.072;2023-03-23T10:52:58;10.50;;;8.10;;
9330;SDS011;4704;50.470;12.072;2023-03-23T10:55:34;9.70;;;7.25;;
9330;SDS011;4704;50.470;12.072;2023-03-23T10:58:06;9.95;;;7.40;;
9330;SDS011;4704;50.470;12.072;2023-03-23T11:00:39;10.30;;;7.40;;
9330;SDS011;4704;50.470;12.072;2023-03-23T11:03:22;10.20;;;7.75;;
9330;SDS011;4704;50.470;12.072;2023-03-23T11:05:52;9.68;;;7.25;;
9330;SDS011;4704;50.470;12.072;2023-03-23T11:08:21;9.20;;;7.05;;
9330;SDS011;4704;50.470;12.072;2023-03-23T11:10:49;8.75;;;7.30;;
9330;SDS011;4704;50.470;12.072;2023-03-23T11:13:20;8.10;;;6.63;;
9330;SDS011;4704;50.470;12.072;2023-03-23T11:15:48;7.95;;;7.05;;
9330;SDS011;4704;50.470;12.072;2023-03-23T11:18:18;8.48;;;6.97;;
9330;SDS011;4704;50.470;12.072;2023-03-23T11:20:48;8.75;;;6.95;;
9330;SDS011;4704;50.470;12.072;2023-03-23T11:23:19;9.52;;;6.68;;
9330;SDS011;4704;50.470;12.072;2023-03-23T11:25:52;8.10;;;6.60;;
9330;SDS011;4704;50.470;12.072;2023-03-23T11:28:21;7.93;;;6.38;;
9330;SDS011;4704;50.470;12.072;2023-03-23T11:30:49;7.20;;;6.07;;
9330;SDS011;4704;50.470;12.072;2023-03-23T11:33:19;7.47;;;5.90;;
9330;SDS011;4704;50.470;12.072;2023-03-23T11:35:50;6.30;;;5.68;;
9330;SDS011;4704;50.470;12.072;2023-03-23T11:38:20;7.22;;;5.90;;
9330;SDS011;4704;50.470;12.072;2023-03-23T11:40:48;7.43;;;5.85;;
9330;SDS011;4704;50.470;12.072;2023-03-23T11:43:18;6.82;;;5.50;;
9330;SDS011;4704;50.470;12.072;2023-03-23T11:45:50;6.00;;;5.40;;
9330;SDS011;4704;50.470;12.072;2023-03-23T11:48:19;6.30;;;4.97;;
9330;SDS011;4704;50.470;12.072;2023-03-23T11:50:50;5.82;;;4.70;;
9330;SDS011;4704;50.470;12.072;2023-03-23T11:53:22;6.60;;;5.30;;
9330;SDS011;4704;50.470;12.072;2023-03-23T11:55:55;7.10;;;5.35;;
9330;SDS011;4704;50.470;12.072;2023-03-23T11:58:22;6.78;;;5.00;;
9330;SDS011;4704;50.470;12.072;2023-03-23T12:01:00;7.13;;;5.35;;
9330;SDS011;4704;50.470;12.072;2023-03-23T12:06:13;7.28;;;5.00;;
9330;SDS011;4704;50.470;12.072;2023-03-23T12:08:45;6.88;;;5.57;;
9330;SDS011;4704;50.470;12.072;2023-03-23T12:11:18;6.00;;;4.75;;
9330;SDS011;4704;50.470;12.072;2023-03-23T12:13:52;5.63;;;5.00;;
9330;SDS011;4704;50.470;12.072;2023-03-23T12:16:30;5.07;;;4.38;;
9330;SDS011;4704;50.470;12.072;2023-03-23T12:19:02;6.72;;;4.68;;
9330;SDS011;4704;50.470;12.072;2023-03-23T12:21:32;6.25;;;4.72;;
9330;SDS011;4704;50.470;12.072;2023-03-23T12:24:04;5.00;;;4.47;;
9330;SDS011;4704;50.470;12.072;2023-03-23T12:26:34;5.93;;;4.78;;
9330;SDS011;4704;50.470;12.072;2023-03-23T12:29:07;5.50;;;4.55;;
9330;SDS011;4704;50.470;12.072;2023-03-23T12:31:41;5.93;;;4.70;;
9330;SDS011;4704;50.470;12.072;2023-03-23T12:34:20;5.70;;;4.55;;
9330;SDS011;4704;50.470;12.072;2023-03-23T12:36:54;4.72;;;4.25;;
9330;SDS011;4704;50.470;12.072;2023-03-23T12:42:12;4.53;;;3.78;;
9330;SDS011;4704;50.470;12.072;2023-03-23T12:44:43;4.32;;;3.92;;
9330;SDS011;4704;50.470;12.072;2023-03-23T12:47:17;4.82;;;4.32;;
9330;SDS011;4704;50.470;12.072;2023-03-23T12:49:50;5.57;;;4.40;;
9330;SDS011;4704;50.470;12.072;2023-03-23T12:52:21;4.03;;;3.65;;
9330;SDS011;4704;50.470;12.072;2023-03-23T12:54:50;5.22;;;4.15;;
9330;SDS011;4704;50.470;12.072;2023-03-23T12:57:20;4.20;;;3.80;;
9330;SDS011;4704;50.470;12.072;2023-03-23T12:59:53;4.32;;;3.90;;
9330;SDS011;4704;50.470;12.072;2023-03-23T13:02:24;4.28;;;3.58;;
9330;SDS011;4704;50.470;12.072;2023-03-23T13:04:56;4.65;;;3.88;;
9330;SDS011;4704;50.470;12.072;2023-03-23T13:07:26;3.97;;;3.58;;
9330;SDS011;4704;50.470;12.072;2023-03-23T13:09:55;4.70;;;3.60;;
9330;SDS011;4704;50.470;12.072;2023-03-23T13:12:23;4.43;;;3.40;;
9330;SDS011;4704;50.470;12.072;2023-03-23T13:14:55;3.67;;;3.35;;
9330;SDS011;4704;50.470;12.072;2023-03-23T13:17:34;3.50;;;3.20;;
9330;SDS011;4704;50.470;12.072;2023-03-23T13:20:13;3.90;;;3.50;;
9330;SDS011;4704;50.470;12.072;2023-03-23T13:22:44;3.38;;;3.08;;
9330;SDS011;4704;50.470;12.072;2023-03-23T13:25:17;3.58;;;3.10;;
9330;SDS011;4704;50.470;12.072;2023-03-23T13:27:49;3.22;;;2.92;;
9330;SDS011;4704;50.470;12.072;2023-03-23T13:30:22;3.40;;;2.90;;
9330;SDS011;4704;50.470;12.072;2023-03-23T13:32:51;3.08;;;2.78;;
9330;SDS011;4704;50.470;12.072;2023-03-23T13:35:19;3.20;;;2.90;;
9330;SDS011;4704;50.470;12.072;2023-03-23T13:37:47;3.78;;;2.83;;
9330;SDS011;4704;50.470;12.072;2023-03-23T13:40:20;3.42;;;2.70;;
9330;SDS011;4704;50.470;12.072;2023-03-23T13:42:48;3.17;;;2.88;;
9330;SDS011;4704;50.470;12.072;2023-03-23T13:45:20;3.47;;;2.55;;
9330;SDS011;4704;50.470;12.072;2023-03-23T13:47:48;2.95;;;2.63;;
9330;SDS011;4704;50.470;12.072;2023-03-23T13:50:26;2.83;;;2.53;;
9330;SDS011;4704;50.470;12.072;2023-03-23T13:52:57;3.15;;;2.75;;
9330;SDS011;4704;50.470;12.072;2023-03-23T13:55:41;2.92;;;2.55;;
9330;SDS011;4704;50.470;12.072;2023-03-23T13:58:10;2.47;;;2.28;;
9330;SDS011;4704;50.470;12.072;2023-03-23T14:00:47;2.45;;;2.25;;
9330;SDS011;4704;50.470;12.072;2023-03-23T14:03:16;2.50;;;2.30;;
9330;SDS011;4704;50.470;12.072;2023-03-23T14:05:45;2.50;;;2.30;;
9330;SDS011;4704;50.470;12.072;2023-03-23T14:08:21;3.83;;;2.30;;
9330;SDS011;4704;50.470;12.072;2023-03-23T14:10:50;2.45;;;2.20;;
9330;SDS011;4704;50.470;12.072;2023-03-23T14:13:19;3.10;;;2.60;;
9330;SDS011;4704;50.470;12.072;2023-03-23T14:15:54;2.80;;;2.50;;
9330;SDS011;4704;50.470;12.072;2023-03-23T14:18:23;2.50;;;2.13;;
9330;SDS011;4704;50.470;12.072;2023-03-23T14:20:54;2.15;;;1.95;;
9330;SDS011;4704;50.470;12.072;2023-03-23T14:23:22;2.17;;;1.88;;
9330;SDS011;4704;50.470;12.072;2023-03-23T14:25:57;2.40;;;2.20;;
9330;SDS011;4704;50.470;12.072;2023-03-23T14:28:30;2.30;;;2.10;;
9330;SDS011;4704;50.470;12.072;2023-03-23T14:30:59;1.95;;;1.85;;
9330;SDS011;4704;50.470;12.072;2023-03-23T14:33:26;2.38;;;2.13;;
9330;SDS011;4704;50.470;12.072;2023-03-23T14:35:56;2.20;;;2.00;;
9330;SDS011;4704;50.470;12.072;2023-03-23T14:38:24;1.92;;;1.80;;
9330;SDS011;4704;50.470;12.072;2023-03-23T14:40:59;2.13;;;2.00;;
9330;SDS011;4704;50.470;12.072;2023-03-23T14:43:26;2.13;;;1.80;;
9330;SDS011;4704;50.470;12.072;2023-03-23T14:45:54;2.10;;;1.90;;
9330;SDS011;4704;50.470;12.072;2023-03-23T14:48:22;2.10;;;1.92;;
9330;SDS011;4704;50.470;12.072;2023-03-23T14:50:51;2.00;;;1.80;;
9330;SDS011;4704;50.470;12.072;2023-03-23T14:53:21;1.65;;;1.55;;
9330;SDS011;4704;50.470;12.072;2023-03-23T14:55:49;2.10;;;1.90;;
9330;SDS011;4704;50.470;12.072;2023-03-23T14:58:18;1.95;;;1.77;;
9330;SDS011;4704;50.470;12.072;2023-03-23T15:00:47;2.55;;;2.00;;
9330;SDS011;4704;50.470;12.072;2023-03-23T15:03:16;1.70;;;1.50;;
9330;SDS011;4704;50.470;12.072;2023-03-23T15:05:45;1.70;;;1.60;;
9330;SDS011;4704;50.470;12.072;2023-03-23T15:08:13;1.63;;;1.52;;
9330;SDS011;4704;50.470;12.072;2023-03-23T15:10:43;1.83;;;1.60;;
9330;SDS011;4704;50.470;12.072;2023-03-23T15:13:18;1.88;;;1.60;;
9330;SDS011;4704;50.470;12.072;2023-03-23T15:15:48;1.75;;;1.63;;
9330;SDS011;4704;50.470;12.072;2023-03-23T15:18:28;1.80;;;1.45;;